sensor_id;sensor_type;location;lat;lon;timestamp;P1;durP1;ratioP1;P2;durP2;ratioP2
50122;SDS011;36021;48.670;6.184;2022-11-15T00:01:28;4.38;;;2.47;;
50122;SDS011;36021;48.670;6.184;2022-11-15T00:04:12;4.82;;;3.10;;
50122;SDS011;36021;48.670;6.184;2022-11-15T00:06:56;4.35;;;2.70;;
50122;SDS011;36021;48.670;6.184;2022-11-15T00:09:41;4.45;;;2.28;;
50122;SDS011;36021;48.670;6.184;2022-11-15T00:12:27;4.63;;;2.63;;
50122;SDS011;36021;48.670;6.184;2022-11-15T00:15:11;4.45;;;2.65;;
50122;SDS011;36021;48.670;6.184;2022-11-15T00:17:58;5.68;;;2.03;;
50122;SDS011;36021;48.670;6.184;2022-11-15T00:20:42;3.72;;;2.40;;
50122;SDS011;36021;48.670;6.184;2022-11-15T00:23:27;4.35;;;2.30;;
50122;SDS011;36021;48.670;6.184;2022-11-15T00:26:13;4.78;;;2.97;;
50122;SDS011;36021;48.670;6.184;2022-11-15T00:28:58;6.78;;;2.17;;
50122;SDS011;36021;48.670;6.184;2022-11-15T00:31:42;4.15;;;2.25;;
50122;SDS011;36021;48.670;6.184;2022-11-15T00:34:26;3.67;;;2.60;;
50122;SDS011;36021;48.670;6.184;2022-11-15T00:37:11;6.32;;;2.58;;
50122;SDS011;36021;48.670;6.184;2022-11-15T00:39:55;4.30;;;2.45;;
50122;SDS011;36021;48.670;6.184;2022-11-15T00:42:39;5.28;;;2.72;;
50122;SDS011;36021;48.670;6.184;2022-11-15T00:45:24;7.75;;;2.78;;
50122;SDS011;36021;48.670;6.184;2022-11-15T00:48:09;4.90;;;2.80;;
50122;SDS011;36021;48.670;6.184;2022-11-15T00:50:53;4.90;;;2.55;;
50122;SDS011;36021;48.670;6.184;2022-11-15T00:53:38;4.60;;;2.60;;
50122;SDS011;36021;48.670;6.184;2022-11-15T00:56:23;4.57;;;2.22;;
50122;SDS011;36021;48.670;6.184;2022-11-15T00:59:08;4.80;;;2.55;;
50122;SDS011;36021;48.670;6.184;2022-11-15T01:01:52;3.47;;;2.33;;
50122;SDS011;36021;48.670;6.184;2022-11-15T01:04:36;3.50;;;2.00;;
50122;SDS011;36021;48.670;6.184;2022-11-15T01:07:20;4.03;;;2.75;;
50122;SDS011;36021;48.670;6.184;2022-11-15T01:10:05;3.60;;;2.00;;
50122;SDS011;36021;48.670;6.184;2022-11-15T01:12:51;2.90;;;2.15;;
50122;SDS011;36021;48.670;6.184;2022-11-15T01:15:38;4.47;;;1.92;;
50122;SDS011;36021;48.670;6.184;2022-11-15T01:18:25;4.03;;;2.22;;
50122;SDS011;36021;48.670;6.184;2022-11-15T01:21:10;2.38;;;1.75;;
50122;SDS011;36021;48.670;6.184;2022-11-15T01:23:59;6.15;;;2.10;;
50122;SDS011;36021;48.670;6.184;2022-11-15T01:26:43;3.88;;;2.40;;
50122;SDS011;36021;48.670;6.184;2022-11-15T01:29:28;4.38;;;2.30;;
50122;SDS011;36021;48.670;6.184;2022-11-15T01:32:12;3.90;;;2.33;;
50122;SDS011;36021;48.670;6.184;2022-11-15T01:34:56;2.65;;;1.55;;
50122;SDS011;36021;48.670;6.184;2022-11-15T01:37:40;3.40;;;2.13;;
50122;SDS011;36021;48.670;6.184;2022-11-15T01:40:25;2.58;;;1.98;;
50122;SDS011;36021;48.670;6.184;2022-11-15T01:43:26;7.53;;;2.20;;
50122;SDS011;36021;48.670;6.184;2022-11-15T01:49:18;5.30;;;2.45;;
50122;SDS011;36021;48.670;6.184;2022-11-15T01:52:05;3.63;;;2.28;;
50122;SDS011;36021;48.670;6.184;2022-11-15T01:54:57;4.18;;;1.63;;
50122;SDS011;36021;48.670;6.184;2022-11-15T01:57:58;4.25;;;2.53;;
50122;SDS011;36021;48.670;6.184;2022-11-15T02:00:45;3.30;;;2.08;;
50122;SDS011;36021;48.670;6.184;2022-11-15T02:03:33;4.82;;;2.53;;
50122;SDS011;36021;48.670;6.184;2022-11-15T02:06:24;5.25;;;1.83;;
50122;SDS011;36021;48.670;6.184;2022-11-15T02:09:09;2.08;;;1.83;;
50122;SDS011;36021;48.670;6.184;2022-11-15T02:11:54;2.15;;;1.48;;
50122;SDS011;36021;48.670;6.184;2022-11-15T02:14:41;2.28;;;1.40;;
50122;SDS011;36021;48.670;6.184;2022-11-15T02:20:42;1.95;;;1.40;;
50122;SDS011;36021;48.670;6.184;2022-11-15T02:32:20;2.17;;;1.25;;
50122;SDS011;36021;48.670;6.184;2022-11-15T02:35:23;3.75;;;1.73;;
50122;SDS011;36021;48.670;6.184;2022-11-15T02:41:25;1.60;;;1.02;;
50122;SDS011;36021;48.670;6.184;2022-11-15T02:44:26;0.82;;;0.82;;
50122;SDS011;36021;48.670;6.184;2022-11-15T02:47:17;2.10;;;1.20;;
50122;SDS011;36021;48.670;6.184;2022-11-15T02:50:03;0.82;;;0.80;;
50122;SDS011;36021;48.670;6.184;2022-11-15T02:52:51;1.20;;;1.00;;
50122;SDS011;36021;48.670;6.184;2022-11-15T02:55:37;2.15;;;1.00;;
50122;SDS011;36021;48.670;6.184;2022-11-15T03:02:06;2.75;;;0.60;;
50122;SDS011;36021;48.670;6.184;2022-11-15T03:08:01;1.05;;;0.80;;
50122;SDS011;36021;48.670;6.184;2022-11-15T03:10:58;1.15;;;0.80;;
50122;SDS011;36021;48.670;6.184;2022-11-15T03:13:54;1.63;;;0.95;;
50122;SDS011;36021;48.670;6.184;2022-11-15T03:20:16;0.65;;;0.65;;
50122;SDS011;36021;48.670;6.184;2022-11-15T03:22:55;0.43;;;0.43;;
50122;SDS011;36021;48.670;6.184;2022-11-15T03:25:47;0.70;;;0.70;;
50122;SDS011;36021;48.670;6.184;2022-11-15T03:31:28;1.13;;;0.70;;
50122;SDS011;36021;48.670;6.184;2022-11-15T03:34:39;1.30;;;0.52;;
50122;SDS011;36021;48.670;6.184;2022-11-15T03:37:27;1.02;;;0.70;;
50122;SDS011;36021;48.670;6.184;2022-11-15T03:40:22;1.48;;;0.63;;
50122;SDS011;36021;48.670;6.184;2022-11-15T03:46:13;2.55;;;0.70;;
50122;SDS011;36021;48.670;6.184;2022-11-15T03:49:14;1.95;;;0.90;;
50122;SDS011;36021;48.670;6.184;2022-11-15T03:52:03;1.02;;;0.60;;
50122;SDS011;36021;48.670;6.184;2022-11-15T03:54:50;1.13;;;0.80;;
50122;SDS011;36021;48.670;6.184;2022-11-15T03:57:38;2.15;;;0.80;;
50122;SDS011;36021;48.670;6.184;2022-11-15T04:00:22;0.93;;;0.73;;
50122;SDS011;36021;48.670;6.184;2022-11-15T04:03:07;1.65;;;0.80;;
50122;SDS011;36021;48.670;6.184;2022-11-15T04:05:51;1.30;;;0.95;;
50122;SDS011;36021;48.670;6.184;2022-11-15T04:08:35;4.82;;;0.90;;
50122;SDS011;36021;48.670;6.184;2022-11-15T04:11:19;3.65;;;1.02;;
50122;SDS011;36021;48.670;6.184;2022-11-15T04:14:05;3.42;;;1.63;;
50122;SDS011;36021;48.670;6.184;2022-11-15T04:16:50;3.60;;;1.60;;
50122;SDS011;36021;48.670;6.184;2022-11-15T04:19:34;1.60;;;1.30;;
50122;SDS011;36021;48.670;6.184;2022-11-15T04:22:37;2.47;;;1.50;;
50122;SDS011;36021;48.670;6.184;2022-11-15T04:25:51;1.88;;;1.20;;
50122;SDS011;36021;48.670;6.184;2022-11-15T04:28:37;2.35;;;1.20;;
50122;SDS011;36021;48.670;6.184;2022-11-15T04:31:43;2.78;;;1.50;;
50122;SDS011;36021;48.670;6.184;2022-11-15T04:34:27;3.08;;;1.42;;
50122;SDS011;36021;48.670;6.184;2022-11-15T04:37:11;2.03;;;1.23;;
50122;SDS011;36021;48.670;6.184;2022-11-15T04:39:55;2.80;;;1.38;;
50122;SDS011;36021;48.670;6.184;2022-11-15T04:42:41;3.58;;;1.60;;
50122;SDS011;36021;48.670;6.184;2022-11-15T04:45:26;3.60;;;1.70;;
50122;SDS011;36021;48.670;6.184;2022-11-15T04:48:10;2.00;;;1.30;;
50122;SDS011;36021;48.670;6.184;2022-11-15T04:50:54;2.47;;;1.42;;
50122;SDS011;36021;48.670;6.184;2022-11-15T04:53:38;3.58;;;1.70;;
50122;SDS011;36021;48.670;6.184;2022-11-15T04:56:22;2.13;;;1.52;;
50122;SDS011;36021;48.670;6.184;2022-11-15T04:59:06;5.35;;;2.33;;
50122;SDS011;36021;48.670;6.184;2022-11-15T05:01:51;2.90;;;1.42;;
50122;SDS011;36021;48.670;6.184;2022-11-15T05:04:35;4.20;;;1.98;;
50122;SDS011;36021;48.670;6.184;2022-11-15T05:07:19;3.55;;;1.80;;
50122;SDS011;36021;48.670;6.184;2022-11-15T05:10:04;4.35;;;1.63;;
50122;SDS011;36021;48.670;6.184;2022-11-15T05:12:48;4.65;;;2.20;;
50122;SDS011;36021;48.670;6.184;2022-11-15T05:15:32;3.78;;;1.85;;
50122;SDS011;36021;48.670;6.184;2022-11-15T05:18:17;3.28;;;2.20;;
50122;SDS011;36021;48.670;6.184;2022-11-15T05:21:07;5.32;;;2.03;;
50122;SDS011;36021;48.670;6.184;2022-11-15T05:23:52;2.30;;;1.55;;
50122;SDS011;36021;48.670;6.184;2022-11-15T05:26:37;2.38;;;1.48;;
50122;SDS011;36021;48.670;6.184;2022-11-15T05:29:21;4.47;;;1.90;;
50122;SDS011;36021;48.670;6.184;2022-11-15T05:32:05;2.70;;;1.95;;
50122;SDS011;36021;48.670;6.184;2022-11-15T05:34:52;4.30;;;2.08;;
50122;SDS011;36021;48.670;6.184;2022-11-15T05:37:36;4.45;;;1.92;;
50122;SDS011;36021;48.670;6.184;2022-11-15T05:40:20;6.28;;;2.20;;
50122;SDS011;36021;48.670;6.184;2022-11-15T05:43:04;2.85;;;1.90;;
50122;SDS011;36021;48.670;6.184;2022-11-15T05:45:49;4.32;;;1.95;;
50122;SDS011;36021;48.670;6.184;2022-11-15T05:48:34;4.43;;;2.33;;
50122;SDS011;36021;48.670;6.184;2022-11-15T05:51:21;3.63;;;1.83;;
50122;SDS011;36021;48.670;6.184;2022-11-15T05:54:06;3.90;;;1.95;;
50122;SDS011;36021;48.670;6.184;2022-11-15T05:56:51;6.47;;;2.58;;
50122;SDS011;36021;48.670;6.184;2022-11-15T05:59:36;6.47;;;2.22;;
50122;SDS011;36021;48.670;6.184;2022-11-15T06:02:20;5.00;;;1.88;;
50122;SDS011;36021;48.670;6.184;2022-11-15T06:05:05;4.97;;;1.83;;
50122;SDS011;36021;48.670;6.184;2022-11-15T06:07:49;4.28;;;1.98;;
50122;SDS011;36021;48.670;6.184;2022-11-15T06:10:33;5.40;;;2.35;;
50122;SDS011;36021;48.670;6.184;2022-11-15T06:13:18;3.05;;;1.90;;
50122;SDS011;36021;48.670;6.184;2022-11-15T06:16:02;3.47;;;2.28;;
50122;SDS011;36021;48.670;6.184;2022-11-15T06:18:46;6.00;;;2.58;;
50122;SDS011;36021;48.670;6.184;2022-11-15T06:21:30;3.75;;;2.10;;
50122;SDS011;36021;48.670;6.184;2022-11-15T06:24:14;5.68;;;2.50;;
50122;SDS011;36021;48.670;6.184;2022-11-15T06:26:58;4.97;;;2.22;;
50122;SDS011;36021;48.670;6.184;2022-11-15T06:29:43;3.40;;;2.00;;
50122;SDS011;36021;48.670;6.184;2022-11-15T06:32:29;5.50;;;2.63;;
50122;SDS011;36021;48.670;6.184;2022-11-15T06:35:14;5.22;;;2.22;;
50122;SDS011;36021;48.670;6.184;2022-11-15T06:38:02;6.75;;;2.45;;
50122;SDS011;36021;48.670;6.184;2022-11-15T06:40:48;3.72;;;2.00;;
50122;SDS011;36021;48.670;6.184;2022-11-15T06:43:32;3.72;;;2.22;;
50122;SDS011;36021;48.670;6.184;2022-11-15T06:46:17;5.20;;;2.22;;
50122;SDS011;36021;48.670;6.184;2022-11-15T06:49:01;2.10;;;1.58;;
50122;SDS011;36021;48.670;6.184;2022-11-15T06:51:46;2.03;;;1.45;;
50122;SDS011;36021;48.670;6.184;2022-11-15T06:54:30;5.63;;;2.00;;
50122;SDS011;36021;48.670;6.184;2022-11-15T06:57:15;5.35;;;1.70;;
50122;SDS011;36021;48.670;6.184;2022-11-15T06:59:59;2.55;;;1.40;;
50122;SDS011;36021;48.670;6.184;2022-11-15T07:02:45;5.18;;;1.40;;
50122;SDS011;36021;48.670;6.184;2022-11-15T07:05:30;4.45;;;2.10;;
50122;SDS011;36021;48.670;6.184;2022-11-15T07:08:15;3.38;;;1.80;;
50122;SDS011;36021;48.670;6.184;2022-11-15T07:11:02;3.42;;;2.03;;
50122;SDS011;36021;48.670;6.184;2022-11-15T07:13:49;2.60;;;1.65;;
50122;SDS011;36021;48.670;6.184;2022-11-15T07:16:33;4.72;;;2.25;;
50122;SDS011;36021;48.670;6.184;2022-11-15T07:19:18;3.85;;;1.38;;
50122;SDS011;36021;48.670;6.184;2022-11-15T07:22:02;3.08;;;1.90;;
50122;SDS011;36021;48.670;6.184;2022-11-15T07:24:46;3.00;;;1.88;;
50122;SDS011;36021;48.670;6.184;2022-11-15T07:27:30;3.30;;;2.00;;
50122;SDS011;36021;48.670;6.184;2022-11-15T07:30:15;4.28;;;1.73;;
50122;SDS011;36021;48.670;6.184;2022-11-15T07:32:59;4.00;;;1.98;;
50122;SDS011;36021;48.670;6.184;2022-11-15T07:35:44;3.15;;;1.75;;
50122;SDS011;36021;48.670;6.184;2022-11-15T07:38:32;3.63;;;1.98;;
50122;SDS011;36021;48.670;6.184;2022-11-15T07:41:17;4.53;;;2.13;;
50122;SDS011;36021;48.670;6.184;2022-11-15T07:44:01;6.78;;;1.60;;
50122;SDS011;36021;48.670;6.184;2022-11-15T07:46:45;2.75;;;1.65;;
50122;SDS011;36021;48.670;6.184;2022-11-15T07:49:30;2.13;;;1.20;;
50122;SDS011;36021;48.670;6.184;2022-11-15T07:52:14;2.40;;;1.30;;
50122;SDS011;36021;48.670;6.184;2022-11-15T07:54:58;2.75;;;1.40;;
50122;SDS011;36021;48.670;6.184;2022-11-15T07:57:42;4.13;;;1.50;;
50122;SDS011;36021;48.670;6.184;2022-11-15T08:00:27;1.77;;;1.38;;
50122;SDS011;36021;48.670;6.184;2022-11-15T08:03:12;3.60;;;1.60;;
50122;SDS011;36021;48.670;6.184;2022-11-15T08:05:58;3.85;;;1.40;;
50122;SDS011;36021;48.670;6.184;2022-11-15T08:08:42;1.83;;;1.35;;
50122;SDS011;36021;48.670;6.184;2022-11-15T08:11:26;3.53;;;1.70;;
50122;SDS011;36021;48.670;6.184;2022-11-15T08:14:11;2.80;;;1.75;;
50122;SDS011;36021;48.670;6.184;2022-11-15T08:16:57;2.50;;;1.27;;
50122;SDS011;36021;48.670;6.184;2022-11-15T08:19:41;2.28;;;1.30;;
50122;SDS011;36021;48.670;6.184;2022-11-15T08:22:25;3.85;;;1.38;;
50122;SDS011;36021;48.670;6.184;2022-11-15T08:25:10;4.18;;;1.50;;
50122;SDS011;36021;48.670;6.184;2022-11-15T08:27:58;2.63;;;1.48;;
50122;SDS011;36021;48.670;6.184;2022-11-15T08:30:44;5.53;;;1.60;;
50122;SDS011;36021;48.670;6.184;2022-11-15T08:33:29;1.98;;;1.20;;
50122;SDS011;36021;48.670;6.184;2022-11-15T08:36:15;2.45;;;1.75;;
50122;SDS011;36021;48.670;6.184;2022-11-15T08:39:00;2.08;;;1.23;;
50122;SDS011;36021;48.670;6.184;2022-11-15T08:41:44;2.20;;;1.50;;
50122;SDS011;36021;48.670;6.184;2022-11-15T08:44:28;2.88;;;1.48;;
50122;SDS011;36021;48.670;6.184;2022-11-15T08:47:12;2.70;;;1.35;;
50122;SDS011;36021;48.670;6.184;2022-11-15T08:50:00;3.58;;;1.33;;
50122;SDS011;36021;48.670;6.184;2022-11-15T08:52:44;2.78;;;1.25;;
50122;SDS011;36021;48.670;6.184;2022-11-15T08:55:28;2.13;;;1.33;;
50122;SDS011;36021;48.670;6.184;2022-11-15T08:58:13;3.15;;;1.48;;
50122;SDS011;36021;48.670;6.184;2022-11-15T09:00:57;4.15;;;1.13;;
50122;SDS011;36021;48.670;6.184;2022-11-15T09:03:44;1.80;;;1.10;;
50122;SDS011;36021;48.670;6.184;2022-11-15T09:06:28;2.70;;;1.20;;
50122;SDS011;36021;48.670;6.184;2022-11-15T09:09:12;4.25;;;1.33;;
50122;SDS011;36021;48.670;6.184;2022-11-15T09:11:56;1.77;;;1.38;;
50122;SDS011;36021;48.670;6.184;2022-11-15T09:14:42;1.42;;;1.25;;
50122;SDS011;36021;48.670;6.184;2022-11-15T09:17:26;3.70;;;1.35;;
50122;SDS011;36021;48.670;6.184;2022-11-15T09:20:10;3.65;;;1.40;;
50122;SDS011;36021;48.670;6.184;2022-11-15T09:22:54;5.55;;;1.88;;
50122;SDS011;36021;48.670;6.184;2022-11-15T09:25:42;3.17;;;1.65;;
50122;SDS011;36021;48.670;6.184;2022-11-15T09:28:27;1.98;;;1.52;;
50122;SDS011;36021;48.670;6.184;2022-11-15T09:31:11;1.88;;;1.23;;
50122;SDS011;36021;48.670;6.184;2022-11-15T09:33:56;1.50;;;1.40;;
50122;SDS011;36021;48.670;6.184;2022-11-15T09:36:40;0.90;;;0.90;;
50122;SDS011;36021;48.670;6.184;2022-11-15T09:39:25;3.33;;;1.58;;
50122;SDS011;36021;48.670;6.184;2022-11-15T09:42:21;2.33;;;1.52;;
50122;SDS011;36021;48.670;6.184;2022-11-15T09:45:26;2.35;;;1.30;;
50122;SDS011;36021;48.670;6.184;2022-11-15T09:48:47;4.90;;;1.42;;
50122;SDS011;36021;48.670;6.184;2022-11-15T09:51:44;2.22;;;1.38;;
50122;SDS011;36021;48.670;6.184;2022-11-15T09:56:46;2.42;;;1.08;;
50122;SDS011;36021;48.670;6.184;2022-11-15T10:04:15;3.25;;;1.20;;
50122;SDS011;36021;48.670;6.184;2022-11-15T10:06:42;1.20;;;0.95;;
50122;SDS011;36021;48.670;6.184;2022-11-15T10:09:58;2.05;;;1.02;;
50122;SDS011;36021;48.670;6.184;2022-11-15T10:12:08;1.15;;;1.05;;
50122;SDS011;36021;48.670;6.184;2022-11-15T10:14:36;3.95;;;1.10;;
50122;SDS011;36021;48.670;6.184;2022-11-15T10:22:43;1.25;;;0.90;;
50122;SDS011;36021;48.670;6.184;2022-11-15T10:25:22;3.30;;;1.27;;
50122;SDS011;36021;48.670;6.184;2022-11-15T10:27:53;2.35;;;1.17;;
50122;SDS011;36021;48.670;6.184;2022-11-15T10:30:29;1.85;;;0.93;;
50122;SDS011;36021;48.670;6.184;2022-11-15T10:32:57;3.97;;;1.00;;
50122;SDS011;36021;48.670;6.184;2022-11-15T10:35:27;1.27;;;0.85;;
50122;SDS011;36021;48.670;6.184;2022-11-15T10:38:04;1.42;;;1.15;;
50122;SDS011;36021;48.670;6.184;2022-11-15T10:40:31;2.70;;;0.93;;
50122;SDS011;36021;48.670;6.184;2022-11-15T10:43:04;2.97;;;0.93;;
50122;SDS011;36021;48.670;6.184;2022-11-15T10:45:31;1.75;;;0.95;;
50122;SDS011;36021;48.670;6.184;2022-11-15T10:48:40;1.45;;;0.88;;
50122;SDS011;36021;48.670;6.184;2022-11-15T10:50:49;4.13;;;1.10;;
50122;SDS011;36021;48.670;6.184;2022-11-15T10:53:19;1.15;;;0.70;;
50122;SDS011;36021;48.670;6.184;2022-11-15T10:55:47;4.85;;;0.80;;
50122;SDS011;36021;48.670;6.184;2022-11-15T11:00:52;4.35;;;0.98;;
50122;SDS011;36021;48.670;6.184;2022-11-15T11:03:37;1.33;;;0.93;;
50122;SDS011;36021;48.670;6.184;2022-11-15T11:08:35;2.10;;;1.33;;
50122;SDS011;36021;48.670;6.184;2022-11-15T11:11:02;1.52;;;0.70;;
50122;SDS011;36021;48.670;6.184;2022-11-15T11:29:57;0.70;;;0.60;;
50122;SDS011;36021;48.670;6.184;2022-11-15T11:35:46;0.95;;;0.60;;
50122;SDS011;36021;48.670;6.184;2022-11-15T11:43:48;2.10;;;0.63;;
50122;SDS011;36021;48.670;6.184;2022-11-15T11:48:46;0.90;;;0.57;;
50122;SDS011;36021;48.670;6.184;2022-11-15T11:54:17;2.05;;;0.90;;
50122;SDS011;36021;48.670;6.184;2022-11-15T11:56:49;1.10;;;0.90;;
50122;SDS011;36021;48.670;6.184;2022-11-15T12:04:40;1.35;;;1.00;;
50122;SDS011;36021;48.670;6.184;2022-11-15T12:07:13;0.95;;;0.77;;
50122;SDS011;36021;48.670;6.184;2022-11-15T12:12:27;4.35;;;0.80;;
50122;SDS011;36021;48.670;6.184;2022-11-15T12:17:35;0.82;;;0.77;;
50122;SDS011;36021;48.670;6.184;2022-11-15T12:20:03;2.42;;;0.93;;
50122;SDS011;36021;48.670;6.184;2022-11-15T12:33:28;1.08;;;0.80;;
50122;SDS011;36021;48.670;6.184;2022-11-15T12:36:03;1.02;;;0.90;;
50122;SDS011;36021;48.670;6.184;2022-11-15T12:41:28;2.45;;;0.98;;
50122;SDS011;36021;48.670;6.184;2022-11-15T12:43:55;0.60;;;0.60;;
50122;SDS011;36021;48.670;6.184;2022-11-15T12:49:09;1.40;;;0.80;;
50122;SDS011;36021;48.670;6.184;2022-11-15T12:52:05;1.70;;;0.98;;
50122;SDS011;36021;48.670;6.184;2022-11-15T13:13:06;2.42;;;1.02;;
50122;SDS011;36021;48.670;6.184;2022-11-15T13:15:37;2.10;;;0.80;;
50122;SDS011;36021;48.670;6.184;2022-11-15T13:18:29;1.10;;;0.93;;
50122;SDS011;36021;48.670;6.184;2022-11-15T13:21:17;2.10;;;0.65;;
50122;SDS011;36021;48.670;6.184;2022-11-15T13:26:29;1.20;;;0.80;;
50122;SDS011;36021;48.670;6.184;2022-11-15T13:28:56;1.20;;;0.82;;
50122;SDS011;36021;48.670;6.184;2022-11-15T13:31:29;3.47;;;1.58;;
50122;SDS011;36021;48.670;6.184;2022-11-15T13:34:01;1.98;;;0.82;;
50122;SDS011;36021;48.670;6.184;2022-11-15T13:36:39;3.00;;;1.17;;
50122;SDS011;36021;48.670;6.184;2022-11-15T13:39:11;2.85;;;1.20;;
50122;SDS011;36021;48.670;6.184;2022-11-15T13:41:47;1.45;;;0.68;;
50122;SDS011;36021;48.670;6.184;2022-11-15T13:44:22;0.98;;;0.65;;
50122;SDS011;36021;48.670;6.184;2022-11-15T13:47:00;2.40;;;1.15;;
50122;SDS011;36021;48.670;6.184;2022-11-15T13:49:29;1.90;;;0.90;;
50122;SDS011;36021;48.670;6.184;2022-11-15T13:51:56;3.45;;;1.08;;
50122;SDS011;36021;48.670;6.184;2022-11-15T13:54:29;2.30;;;1.05;;
50122;SDS011;36021;48.670;6.184;2022-11-15T13:57:00;3.38;;;0.63;;
50122;SDS011;36021;48.670;6.184;2022-11-15T13:59:31;2.17;;;0.90;;
50122;SDS011;36021;48.670;6.184;2022-11-15T14:02:01;3.47;;;1.08;;
50122;SDS011;36021;48.670;6.184;2022-11-15T14:04:36;1.15;;;0.93;;
50122;SDS011;36021;48.670;6.184;2022-11-15T14:07:14;3.85;;;0.88;;
50122;SDS011;36021;48.670;6.184;2022-11-15T14:09:42;5.32;;;1.27;;
50122;SDS011;36021;48.670;6.184;2022-11-15T14:14:57;5.55;;;1.38;;
50122;SDS011;36021;48.670;6.184;2022-11-15T14:19:56;1.90;;;0.95;;
50122;SDS011;36021;48.670;6.184;2022-11-15T14:22:26;1.65;;;0.80;;
50122;SDS011;36021;48.670;6.184;2022-11-15T14:30:37;1.33;;;0.80;;
50122;SDS011;36021;48.670;6.184;2022-11-15T14:35:51;0.90;;;0.90;;
50122;SDS011;36021;48.670;6.184;2022-11-15T14:38:17;1.83;;;1.20;;
50122;SDS011;36021;48.670;6.184;2022-11-15T14:40:43;1.30;;;1.05;;
50122;SDS011;36021;48.670;6.184;2022-11-15T14:43:10;0.80;;;0.70;;
50122;SDS011;36021;48.670;6.184;2022-11-15T14:45:36;2.55;;;1.13;;
50122;SDS011;36021;48.670;6.184;2022-11-15T14:48:02;1.67;;;0.90;;
50122;SDS011;36021;48.670;6.184;2022-11-15T14:50:28;0.73;;;0.68;;
50122;SDS011;36021;48.670;6.184;2022-11-15T14:52:54;1.42;;;1.08;;
50122;SDS011;36021;48.670;6.184;2022-11-15T14:55:27;1.13;;;0.90;;
50122;SDS011;36021;48.670;6.184;2022-11-15T14:57:55;1.73;;;1.00;;
50122;SDS011;36021;48.670;6.184;2022-11-15T15:00:22;1.83;;;1.27;;
50122;SDS011;36021;48.670;6.184;2022-11-15T15:02:48;2.03;;;1.10;;
50122;SDS011;36021;48.670;6.184;2022-11-15T15:05:19;1.42;;;0.90;;
50122;SDS011;36021;48.670;6.184;2022-11-15T15:07:48;0.80;;;0.80;;
50122;SDS011;36021;48.670;6.184;2022-11-15T15:10:15;1.30;;;0.90;;
50122;SDS011;36021;48.670;6.184;2022-11-15T15:12:42;2.83;;;1.17;;
50122;SDS011;36021;48.670;6.184;2022-11-15T15:15:14;1.47;;;0.73;;
50122;SDS011;36021;48.670;6.184;2022-11-15T15:17:46;1.42;;;1.00;;
50122;SDS011;36021;48.670;6.184;2022-11-15T15:20:12;1.35;;;1.00;;
50122;SDS011;36021;48.670;6.184;2022-11-15T15:22:38;0.98;;;0.82;;
50122;SDS011;36021;48.670;6.184;2022-11-15T15:28:00;2.30;;;1.50;;
50122;SDS011;36021;48.670;6.184;2022-11-15T15:30:27;3.58;;;1.30;;
50122;SDS011;36021;48.670;6.184;2022-11-15T15:32:55;2.00;;;1.35;;
50122;SDS011;36021;48.670;6.184;2022-11-15T15:35:21;1.48;;;1.23;;
50122;SDS011;36021;48.670;6.184;2022-11-15T15:37:48;1.55;;;1.10;;
50122;SDS011;36021;48.670;6.184;2022-11-15T15:40:21;2.90;;;1.27;;
50122;SDS011;36021;48.670;6.184;2022-11-15T15:42:48;1.55;;;1.08;;
50122;SDS011;36021;48.670;6.184;2022-11-15T15:45:15;1.65;;;1.02;;
50122;SDS011;36021;48.670;6.184;2022-11-15T15:47:42;4.05;;;1.50;;
50122;SDS011;36021;48.670;6.184;2022-11-15T15:50:31;1.48;;;1.02;;
50122;SDS011;36021;48.670;6.184;2022-11-15T15:52:58;2.05;;;1.25;;
50122;SDS011;36021;48.670;6.184;2022-11-15T15:55:25;2.23;;;1.20;;
50122;SDS011;36021;48.670;6.184;2022-11-15T15:57:51;1.30;;;1.10;;
50122;SDS011;36021;48.670;6.184;2022-11-15T16:00:17;2.08;;;1.25;;
50122;SDS011;36021;48.670;6.184;2022-11-15T16:02:44;3.00;;;1.40;;
50122;SDS011;36021;48.670;6.184;2022-11-15T16:05:09;2.50;;;1.38;;
50122;SDS011;36021;48.670;6.184;2022-11-15T16:07:36;2.72;;;1.67;;
50122;SDS011;36021;48.670;6.184;2022-11-15T16:10:08;3.42;;;1.20;;
50122;SDS011;36021;48.670;6.184;2022-11-15T16:12:41;3.13;;;1.20;;
50122;SDS011;36021;48.670;6.184;2022-11-15T16:15:08;3.33;;;1.52;;
50122;SDS011;36021;48.670;6.184;2022-11-15T16:17:38;2.03;;;1.23;;
50122;SDS011;36021;48.670;6.184;2022-11-15T16:20:11;6.55;;;2.00;;
50122;SDS011;36021;48.670;6.184;2022-11-15T16:22:47;2.03;;;1.55;;
50122;SDS011;36021;48.670;6.184;2022-11-15T16:25:13;2.67;;;1.30;;
50122;SDS011;36021;48.670;6.184;2022-11-15T16:27:38;6.25;;;1.80;;
50122;SDS011;36021;48.670;6.184;2022-11-15T16:30:14;4.13;;;1.50;;
50122;SDS011;36021;48.670;6.184;2022-11-15T16:32:41;6.75;;;1.67;;
50122;SDS011;36021;48.670;6.184;2022-11-15T16:35:07;6.68;;;2.10;;
50122;SDS011;36021;48.670;6.184;2022-11-15T16:37:37;3.08;;;1.50;;
50122;SDS011;36021;48.670;6.184;2022-11-15T16:42:40;1.73;;;1.25;;
50122;SDS011;36021;48.670;6.184;2022-11-15T16:45:07;4.35;;;1.42;;
50122;SDS011;36021;48.670;6.184;2022-11-15T16:47:37;1.80;;;1.30;;
50122;SDS011;36021;48.670;6.184;2022-11-15T16:50:03;1.52;;;1.25;;
50122;SDS011;36021;48.670;6.184;2022-11-15T16:52:28;3.25;;;1.20;;
50122;SDS011;36021;48.670;6.184;2022-11-15T16:54:54;2.78;;;1.20;;
50122;SDS011;36021;48.670;6.184;2022-11-15T16:57:19;2.35;;;1.55;;
50122;SDS011;36021;48.670;6.184;2022-11-15T16:59:46;5.18;;;1.75;;
50122;SDS011;36021;48.670;6.184;2022-11-15T17:02:12;1.73;;;1.60;;
50122;SDS011;36021;48.670;6.184;2022-11-15T17:04:38;3.38;;;1.38;;
50122;SDS011;36021;48.670;6.184;2022-11-15T17:07:04;2.42;;;1.35;;
50122;SDS011;36021;48.670;6.184;2022-11-15T17:09:29;3.47;;;1.95;;
50122;SDS011;36021;48.670;6.184;2022-11-15T17:11:55;1.75;;;1.50;;
50122;SDS011;36021;48.670;6.184;2022-11-15T17:14:21;2.72;;;1.55;;
50122;SDS011;36021;48.670;6.184;2022-11-15T17:16:46;4.38;;;1.98;;
50122;SDS011;36021;48.670;6.184;2022-11-15T17:19:13;3.22;;;1.73;;
50122;SDS011;36021;48.670;6.184;2022-11-15T17:21:40;2.70;;;1.70;;
50122;SDS011;36021;48.670;6.184;2022-11-15T17:24:07;2.08;;;1.60;;
50122;SDS011;36021;48.670;6.184;2022-11-15T17:26:33;3.85;;;2.30;;
50122;SDS011;36021;48.670;6.184;2022-11-15T17:28:58;2.20;;;1.25;;
50122;SDS011;36021;48.670;6.184;2022-11-15T17:31:25;6.68;;;1.67;;
50122;SDS011;36021;48.670;6.184;2022-11-15T17:33:51;2.17;;;1.27;;
50122;SDS011;36021;48.670;6.184;2022-11-15T17:36:17;2.40;;;1.50;;
50122;SDS011;36021;48.670;6.184;2022-11-15T17:38:43;2.25;;;1.50;;
50122;SDS011;36021;48.670;6.184;2022-11-15T17:41:14;5.45;;;1.75;;
50122;SDS011;36021;48.670;6.184;2022-11-15T17:43:40;1.67;;;1.10;;
50122;SDS011;36021;48.670;6.184;2022-11-15T17:46:07;2.88;;;1.50;;
50122;SDS011;36021;48.670;6.184;2022-11-15T17:48:35;3.33;;;1.60;;
50122;SDS011;36021;48.670;6.184;2022-11-15T17:51:02;1.85;;;1.50;;
50122;SDS011;36021;48.670;6.184;2022-11-15T17:53:33;4.28;;;1.90;;
50122;SDS011;36021;48.670;6.184;2022-11-15T17:56:05;2.45;;;1.92;;
50122;SDS011;36021;48.670;6.184;2022-11-15T18:03:39;3.17;;;1.52;;
50122;SDS011;36021;48.670;6.184;2022-11-15T18:06:06;2.20;;;1.40;;
50122;SDS011;36021;48.670;6.184;2022-11-15T18:08:37;3.03;;;1.38;;
50122;SDS011;36021;48.670;6.184;2022-11-15T18:11:05;4.22;;;1.80;;
50122;SDS011;36021;48.670;6.184;2022-11-15T18:13:44;3.50;;;1.58;;
50122;SDS011;36021;48.670;6.184;2022-11-15T18:16:12;3.72;;;1.52;;
50122;SDS011;36021;48.670;6.184;2022-11-15T18:18:39;4.15;;;1.73;;
50122;SDS011;36021;48.670;6.184;2022-11-15T18:21:06;3.65;;;1.67;;
50122;SDS011;36021;48.670;6.184;2022-11-15T18:23:32;2.00;;;1.52;;
50122;SDS011;36021;48.670;6.184;2022-11-15T18:25:59;3.30;;;1.85;;
50122;SDS011;36021;48.670;6.184;2022-11-15T18:28:45;3.70;;;1.60;;
50122;SDS011;36021;48.670;6.184;2022-11-15T18:31:13;3.63;;;1.50;;
50122;SDS011;36021;48.670;6.184;2022-11-15T18:33:40;3.03;;;1.88;;
50122;SDS011;36021;48.670;6.184;2022-11-15T18:36:08;7.18;;;2.08;;